University Oxford Airport
KUOX : now visible

Airfield :











YOU CAN JOIN US ON...

 
LOGIN :

Register | Disclaimer

   EN    FR    IT 

 









Legend :    VFR   Marginal VFR   IFR   Intensive IFR   Very Intensive IFR
Visi :
Ceiling :
>= 8 km
>= 3000ft
5 to 8 km
1000 to 3000 ft
1500m to 5 km
500 to 1000 ft
800 to 1500m
200 to 500 ft
< 800m
< 200 ft
Symbols :   Thunderstorms  Fog  Heavy snow  Heavy precipitations  Wind > 20 kt






- Airport Elevation : 452 ft


KUOX - University Oxford

CURRENT METAR :
  • 250355Z AUTO 14008G13KT 110V170 10SM CLR 26/23 A3005 RMK AO2 PWINO

EXPIRED METARs :
  • 250335Z AUTO 14007KT 10SM CLR 26/23 A3005 RMK AO2 PWINO
  • 250315Z AUTO 15006G11KT 10SM CLR 27/23 A3005 RMK AO2 PWINO
  • 250255Z AUTO VRB06KT 10SM CLR 27/23 A3005 RMK AO2 PWINO
  • 250235Z AUTO 14006KT 10SM CLR 27/23 A3005 RMK AO2 PWINO
  • 250215Z AUTO 14005KT 10SM CLR 27/23 A3004 RMK AO2 PWINO
  • 250155Z AUTO 13004KT 10SM CLR 27/23 A3004 RMK AO2 PWINO
  • 250135Z AUTO 14004KT 10SM CLR 28/23 A3004 RMK AO2 PWINO
  • 250115Z AUTO 12005KT 10SM CLR 28/23 A3004 RMK AO2 PWINO

TAF N/A
KZME FIR / North America



MET'MAP, your aeronautical weather chart ! - Copyright ORBIFLY December 2007 - Disclaimer

ORBIFLY MET'MAP TEAM :

Programming & Development : Alexandra Zaïnal
Concept & original design : Baudouin d'Aumeries
Assistance for programming : Marc-Olivier Méhu
Technical & hardware support : Manuel Goepfert

Contact : metmap@orbifly.com




SOURCES & CREDITS :

   NOAA       Earth
Advisory